createdAt,value
2023-05-06T00:00:24.428Z,68.76
2023-05-06T00:03:22.433Z,68.83
2023-05-06T00:06:19.989Z,68.92
2023-05-06T00:09:17.930Z,69.05
2023-05-06T00:12:15.396Z,69.17
2023-05-06T00:15:13.281Z,69.27
2023-05-06T00:18:11.124Z,69.38
2023-05-06T00:21:08.555Z,69.54
2023-05-06T00:24:06.465Z,69.68
2023-05-06T00:27:04.344Z,69.74
2023-05-06T00:30:02.244Z,69.90
2023-05-06T00:32:59.731Z,70.02
2023-05-06T00:35:57.595Z,70.13
2023-05-06T00:38:55.258Z,70.23
2023-05-06T00:41:53.177Z,70.44
2023-05-06T00:44:50.642Z,70.17
2023-05-06T00:47:48.633Z,70.03
2023-05-06T00:50:46.626Z,69.94
2023-05-06T00:53:43.986Z,69.79
2023-05-06T00:56:41.731Z,69.62
2023-05-06T00:59:39.801Z,69.47
2023-05-06T01:02:46.256Z,69.32
2023-05-06T01:05:46.200Z,69.07
2023-05-06T01:08:44.342Z,68.76
2023-05-06T01:11:42.240Z,68.47
2023-05-06T01:14:39.689Z,68.28
2023-05-06T01:17:37.579Z,68.00
2023-05-06T01:20:35.039Z,67.75
2023-05-06T01:23:32.874Z,67.51
2023-05-06T01:26:30.274Z,67.29
2023-05-06T01:29:31.224Z,67.09
2023-05-06T01:32:29.065Z,66.89
2023-05-06T01:35:26.537Z,66.63
2023-05-06T01:38:24.573Z,66.36
2023-05-06T01:41:22.445Z,66.14
2023-05-06T01:44:19.884Z,65.93
2023-05-06T01:47:17.677Z,65.68
2023-05-06T01:50:15.190Z,65.49
2023-05-06T01:53:13.105Z,65.34
2023-05-06T01:56:10.555Z,65.17
2023-05-06T01:59:08.333Z,65.05
2023-05-06T02:02:07.554Z,64.91
2023-05-06T02:05:05.096Z,64.80
2023-05-06T02:08:02.970Z,64.66
2023-05-06T02:11:00.440Z,64.55
2023-05-06T02:13:58.779Z,64.45
2023-05-06T02:16:56.434Z,64.35
2023-05-06T02:19:54.430Z,64.28
2023-05-06T02:22:51.857Z,64.20
2023-05-06T02:25:50.691Z,64.13
2023-05-06T02:28:48.133Z,63.99
2023-05-06T02:31:46.152Z,63.90
2023-05-06T02:34:43.600Z,63.79
2023-05-06T02:37:41.451Z,63.75
2023-05-06T02:40:38.899Z,63.64
2023-05-06T02:43:36.798Z,63.53
2023-05-06T02:46:34.243Z,63.59
2023-05-06T02:49:32.214Z,63.56
2023-05-06T02:52:29.600Z,63.50
2023-05-06T02:55:27.442Z,63.44
2023-05-06T02:58:26.310Z,63.36
2023-05-06T03:01:24.771Z,63.37
2023-05-06T03:04:22.987Z,63.40
2023-05-06T03:07:20.548Z,63.43
2023-05-06T03:10:18.530Z,63.52
2023-05-06T03:13:16.143Z,63.59
2023-05-06T03:16:14.711Z,63.65
2023-05-06T03:19:12.601Z,63.66
2023-05-06T03:22:10.494Z,63.53
2023-05-06T03:25:08.369Z,63.51
2023-05-06T03:28:06.557Z,63.58
2023-05-06T03:31:04.450Z,63.83
2023-05-06T03:34:01.892Z,63.98
2023-05-06T03:36:59.787Z,64.07
2023-05-06T03:39:57.165Z,64.18
2023-05-06T03:42:55.166Z,64.20
2023-05-06T03:45:52.658Z,64.18
2023-05-06T03:48:50.635Z,64.15
2023-05-06T03:51:48.029Z,64.26
2023-05-06T03:54:45.861Z,64.37
2023-05-06T03:57:43.351Z,64.53
2023-05-06T04:00:41.181Z,64.65
2023-05-06T04:03:39.132Z,64.80
2023-05-06T04:06:36.794Z,64.97
2023-05-06T04:09:34.576Z,65.10
2023-05-06T04:12:31.976Z,65.19
2023-05-06T04:15:32.690Z,65.28
2023-05-06T04:18:30.676Z,65.43
2023-05-06T04:21:30.036Z,65.49
2023-05-06T04:24:28.556Z,65.63
2023-05-06T04:27:28.269Z,65.75
2023-05-06T04:30:26.234Z,65.85
2023-05-06T04:33:24.321Z,65.97
2023-05-06T04:36:22.047Z,66.15
2023-05-06T04:39:19.930Z,66.24
2023-05-06T04:42:17.537Z,66.32
2023-05-06T04:45:15.373Z,66.57
2023-05-06T04:48:13.109Z,66.93
2023-05-06T04:51:10.610Z,67.26
2023-05-06T04:54:08.477Z,67.48
2023-05-06T04:57:06.340Z,67.74
2023-05-06T05:00:03.768Z,67.90
2023-05-06T05:03:02.213Z,68.18
2023-05-06T05:06:00.296Z,68.44
2023-05-06T05:08:58.712Z,68.77
2023-05-06T05:11:57.564Z,69.14
2023-05-06T05:14:54.984Z,69.39
2023-05-06T05:17:52.990Z,69.47
2023-05-06T05:20:50.485Z,69.57
2023-05-06T05:23:48.316Z,69.72
2023-05-06T05:26:46.070Z,69.82
2023-05-06T05:29:43.934Z,70.02
2023-05-06T05:32:41.849Z,70.06
2023-05-06T05:35:39.239Z,70.18
2023-05-06T05:38:37.094Z,70.40
2023-05-06T05:41:35.525Z,70.74
2023-05-06T05:44:34.933Z,70.97
2023-05-06T05:47:32.389Z,71.15
2023-05-06T05:50:30.128Z,71.34
2023-05-06T05:53:27.561Z,71.45
2023-05-06T05:56:25.144Z,71.39
2023-05-06T05:59:22.499Z,71.53
2023-05-06T06:02:20.221Z,71.67
2023-05-06T06:05:17.986Z,71.59
2023-05-06T06:08:15.428Z,71.58
2023-05-06T06:11:13.077Z,71.48
2023-05-06T06:14:10.509Z,71.56
2023-05-06T06:17:08.175Z,71.55
2023-05-06T06:20:06.296Z,71.36
2023-05-06T06:23:05.681Z,71.04
2023-05-06T06:26:03.450Z,70.62
2023-05-06T06:29:00.838Z,70.03
2023-05-06T06:31:58.645Z,69.49
2023-05-06T06:34:56.113Z,68.87
2023-05-06T06:37:53.929Z,68.22
2023-05-06T06:40:51.325Z,67.77
2023-05-06T06:43:49.255Z,67.25
2023-05-06T06:46:46.997Z,66.43
2023-05-06T06:49:44.376Z,65.75
2023-05-06T06:52:42.140Z,65.31
2023-05-06T06:55:39.508Z,64.85
2023-05-06T06:58:37.131Z,64.26
2023-05-06T07:01:34.615Z,64.11
2023-05-06T07:04:32.428Z,64.58
2023-05-06T07:07:30.241Z,64.44
2023-05-06T07:10:27.699Z,63.74
2023-05-06T07:13:25.425Z,63.05
2023-05-06T07:16:23.244Z,62.58
2023-05-06T07:19:20.996Z,62.38
2023-05-06T07:22:18.704Z,62.04
2023-05-06T07:25:16.531Z,61.95
2023-05-06T07:28:13.949Z,61.54
2023-05-06T07:31:11.708Z,60.90
2023-05-06T07:34:09.450Z,60.33
2023-05-06T07:37:08.045Z,59.94
2023-05-06T07:40:06.721Z,59.65
2023-05-06T07:43:04.436Z,58.96
2023-05-06T07:46:05.311Z,58.38
2023-05-06T07:49:02.702Z,57.54
2023-05-06T07:52:00.357Z,57.28
2023-05-06T07:54:57.990Z,56.34
2023-05-06T07:57:55.391Z,55.61
2023-05-06T08:00:53.029Z,55.30
2023-05-06T08:03:50.564Z,54.18
2023-05-06T08:06:48.431Z,53.20
2023-05-06T08:09:45.840Z,52.39
2023-05-06T08:12:43.607Z,51.36
2023-05-06T08:15:41.476Z,50.84
2023-05-06T08:18:38.915Z,50.26
2023-05-06T08:21:37.329Z,50.05
2023-05-06T08:24:34.747Z,49.78
2023-05-06T08:27:33.325Z,49.37
2023-05-06T08:30:30.771Z,49.07
2023-05-06T08:33:28.381Z,48.65
2023-05-06T08:36:25.861Z,48.43
2023-05-06T08:39:24.117Z,48.34
2023-05-06T08:42:21.884Z,48.26
2023-05-06T08:45:19.305Z,47.95
2023-05-06T08:48:17.102Z,47.84
2023-05-06T08:51:14.508Z,47.51
2023-05-06T08:54:12.034Z,47.09
2023-05-06T08:57:10.979Z,47.31
2023-05-06T09:00:11.351Z,47.08
2023-05-06T09:03:09.168Z,46.97
2023-05-06T09:06:06.638Z,47.27
2023-05-06T09:09:04.445Z,47.49
2023-05-06T09:12:02.546Z,47.63
2023-05-06T09:15:00.475Z,47.87
2023-05-06T09:17:58.162Z,48.15
2023-05-06T09:20:55.662Z,47.79
2023-05-06T09:23:53.383Z,47.67
2023-05-06T09:26:50.857Z,47.78
2023-05-06T09:29:48.484Z,47.44
2023-05-06T09:32:49.849Z,47.08
2023-05-06T09:35:48.041Z,46.91
2023-05-06T09:38:45.923Z,46.86
2023-05-06T09:41:43.548Z,46.37
2023-05-06T09:44:41.230Z,46.32
2023-05-06T09:47:38.653Z,46.54
2023-05-06T09:50:36.398Z,46.82
2023-05-06T09:53:33.839Z,46.92
2023-05-06T09:56:31.545Z,46.71
2023-05-06T09:59:29.381Z,46.75
2023-05-06T10:02:27.252Z,46.80
2023-05-06T10:05:24.916Z,46.73
2023-05-06T10:08:23.175Z,46.72
2023-05-06T10:11:20.627Z,46.76
2023-05-06T10:14:18.210Z,46.38
2023-05-06T10:17:16.545Z,45.64
2023-05-06T10:20:13.995Z,45.06
2023-05-06T10:23:12.394Z,44.36
2023-05-06T10:26:09.829Z,43.67
2023-05-06T10:29:07.394Z,43.03
2023-05-06T10:32:05.050Z,42.28
2023-05-06T10:35:03.084Z,42.34
2023-05-06T10:38:00.834Z,42.43
2023-05-06T10:40:58.218Z,42.11
2023-05-06T10:43:57.835Z,41.90
2023-05-06T10:46:55.266Z,41.45
2023-05-06T10:49:52.919Z,40.72
2023-05-06T10:52:50.478Z,40.08
2023-05-06T10:55:48.132Z,38.87
2023-05-06T10:58:46.007Z,38.63
2023-05-06T11:01:43.425Z,38.05
2023-05-06T11:04:41.061Z,37.72
2023-05-06T11:07:38.444Z,37.31
2023-05-06T11:10:36.555Z,37.36
2023-05-06T11:13:34.144Z,36.63
2023-05-06T11:16:31.793Z,36.03
2023-05-06T11:19:30.391Z,35.70
2023-05-06T11:22:27.811Z,35.96
2023-05-06T11:25:25.505Z,35.43
2023-05-06T11:28:22.949Z,35.42
2023-05-06T11:31:20.748Z,35.17
2023-05-06T11:34:18.307Z,35.41
2023-05-06T11:37:15.744Z,35.46
2023-05-06T11:40:13.409Z,35.67
2023-05-06T11:43:10.888Z,35.67
2023-05-06T11:46:08.669Z,35.30
2023-05-06T11:49:06.530Z,35.36
2023-05-06T11:52:03.923Z,35.14
2023-05-06T11:55:01.655Z,35.05
2023-05-06T11:57:59.050Z,35.28
2023-05-06T12:00:56.683Z,35.35
2023-05-06T12:03:54.278Z,35.62
2023-05-06T12:06:51.941Z,35.58
2023-05-06T12:09:49.337Z,35.38
2023-05-06T12:12:46.994Z,34.97
2023-05-06T12:15:44.640Z,34.24
2023-05-06T12:18:42.078Z,33.54
2023-05-06T12:21:39.820Z,33.33
2023-05-06T12:24:38.405Z,33.23
2023-05-06T12:27:35.964Z,32.84
2023-05-06T12:30:34.659Z,32.46
2023-05-06T12:33:32.138Z,32.45
2023-05-06T12:36:29.864Z,32.03
2023-05-06T12:39:27.274Z,32.06
2023-05-06T12:42:24.921Z,32.39
2023-05-06T12:45:22.338Z,32.43
2023-05-06T12:48:19.929Z,32.52
2023-05-06T12:51:17.709Z,32.49
2023-05-06T12:54:15.158Z,32.97
2023-05-06T12:57:12.831Z,33.42
2023-05-06T13:00:10.879Z,33.45
2023-05-06T13:03:09.045Z,33.47
2023-05-06T13:06:06.549Z,33.69
2023-05-06T13:09:05.144Z,33.58
2023-05-06T13:12:02.570Z,33.19
2023-05-06T13:15:00.341Z,33.65
2023-05-06T13:17:57.804Z,33.54
2023-05-06T13:20:55.566Z,33.34
2023-05-06T13:23:53.372Z,33.49
2023-05-06T13:26:50.834Z,33.36
2023-05-06T13:29:48.452Z,33.74
2023-05-06T13:32:45.991Z,34.38
2023-05-06T13:35:43.681Z,34.82
2023-05-06T13:38:41.155Z,35.03
2023-05-06T13:41:38.828Z,34.87
2023-05-06T13:44:36.892Z,35.07
2023-05-06T13:47:34.299Z,35.66
2023-05-06T13:50:31.997Z,36.03
2023-05-06T13:53:29.555Z,36.33
2023-05-06T13:56:27.249Z,36.45
2023-05-06T13:59:24.632Z,36.69
2023-05-06T14:02:24.207Z,37.03
2023-05-06T14:05:22.226Z,37.61
2023-05-06T14:08:19.965Z,38.38
2023-05-06T14:11:18.381Z,38.88
2023-05-06T14:14:16.024Z,38.98
2023-05-06T14:17:13.632Z,39.22
2023-05-06T14:20:11.091Z,39.69
2023-05-06T14:23:09.398Z,39.93
2023-05-06T14:26:06.789Z,39.95
2023-05-06T14:29:04.446Z,39.90
2023-05-06T14:32:02.152Z,39.88
2023-05-06T14:34:59.689Z,39.92
2023-05-06T14:37:57.423Z,39.81
2023-05-06T14:40:54.806Z,39.97
2023-05-06T14:43:52.427Z,40.11
2023-05-06T14:46:49.818Z,40.10
2023-05-06T14:49:47.513Z,39.97
2023-05-06T14:52:44.912Z,39.95
2023-05-06T14:55:42.526Z,39.72
2023-05-06T14:58:40.660Z,39.77
2023-05-06T15:01:38.127Z,39.57
2023-05-06T15:04:36.020Z,39.62
2023-05-06T15:07:33.399Z,39.76
2023-05-06T15:10:31.108Z,39.63
2023-05-06T15:13:28.546Z,39.66
2023-05-06T15:16:26.329Z,39.55
2023-05-06T15:19:24.006Z,39.48
2023-05-06T15:22:21.454Z,39.41
2023-05-06T15:25:33.354Z,39.49
2023-05-06T15:28:32.165Z,39.51
2023-05-06T15:31:29.948Z,39.75
2023-05-06T15:34:27.420Z,39.87
2023-05-06T15:37:25.040Z,40.09
2023-05-06T15:40:25.616Z,40.17
2023-05-06T15:43:24.353Z,40.53
2023-05-06T15:46:22.881Z,40.84
2023-05-06T15:49:47.309Z,40.78
2023-05-06T15:52:38.019Z,40.28
2023-05-06T15:55:45.198Z,40.13
2023-05-06T15:58:49.278Z,40.07
2023-05-06T16:04:47.875Z,39.97
2023-05-06T16:07:46.032Z,40.15
2023-05-06T16:10:43.479Z,40.32
2023-05-06T16:13:43.698Z,40.75
2023-05-06T16:16:41.153Z,40.58
2023-05-06T16:19:39.432Z,40.55
2023-05-06T16:22:39.208Z,40.76
2023-05-06T16:25:38.414Z,41.40
2023-05-06T16:28:37.377Z,42.12
2023-05-06T16:31:36.153Z,42.57
2023-05-06T16:34:33.920Z,43.06
2023-05-06T16:37:31.355Z,43.67
2023-05-06T16:40:30.291Z,44.42
2023-05-06T16:43:27.743Z,45.02
2023-05-06T16:46:26.477Z,45.39
2023-05-06T16:49:27.999Z,46.11
2023-05-06T16:52:25.500Z,46.88
2023-05-06T16:55:23.210Z,47.40
2023-05-06T16:58:20.614Z,47.72
2023-05-06T17:01:18.366Z,48.09
2023-05-06T17:04:16.126Z,48.59
2023-05-06T17:07:13.878Z,49.10
2023-05-06T17:10:12.542Z,51.12
2023-05-06T17:13:10.203Z,52.85
2023-05-06T17:16:07.935Z,54.04
2023-05-06T17:19:05.381Z,55.72
2023-05-06T17:22:03.422Z,57.25
2023-05-06T17:25:01.208Z,58.01
2023-05-06T17:27:58.959Z,59.12
2023-05-06T17:30:56.621Z,59.22
2023-05-06T17:33:54.048Z,59.85
2023-05-06T17:36:52.506Z,60.88
2023-05-06T17:39:49.975Z,61.29
2023-05-06T17:42:48.096Z,61.86
2023-05-06T17:45:46.178Z,62.53
2023-05-06T17:48:44.150Z,62.72
2023-05-06T17:51:46.217Z,62.90
2023-05-06T17:54:43.671Z,63.08
2023-05-06T17:57:41.439Z,63.62
2023-05-06T18:00:38.987Z,63.97
2023-05-06T18:03:36.816Z,64.54
2023-05-06T18:06:34.385Z,65.15
2023-05-06T18:09:32.823Z,65.45
2023-05-06T18:12:30.194Z,65.60
2023-05-06T18:15:27.930Z,65.57
2023-05-06T18:18:25.643Z,65.93
2023-05-06T18:21:23.215Z,66.45
2023-05-06T18:24:21.970Z,66.65
2023-05-06T18:27:19.345Z,66.68
2023-05-06T18:30:17.283Z,66.93
2023-05-06T18:33:14.722Z,67.52
2023-05-06T18:36:13.447Z,67.81
2023-05-06T18:39:11.189Z,68.12
2023-05-06T18:42:08.643Z,68.39
2023-05-06T18:45:07.444Z,68.90
2023-05-06T18:48:05.028Z,69.23
2023-05-06T18:51:02.658Z,69.47
2023-05-06T18:54:00.159Z,69.65
2023-05-06T18:56:58.863Z,69.71
2023-05-06T18:59:56.430Z,69.93
2023-05-06T19:02:53.965Z,70.14
2023-05-06T19:05:52.852Z,70.27
2023-05-06T19:08:50.285Z,70.34
2023-05-06T19:11:47.959Z,70.43
2023-05-06T19:14:45.402Z,70.44
2023-05-06T19:17:43.185Z,70.45
2023-05-06T19:20:40.648Z,70.76
2023-05-06T19:23:38.373Z,70.88
2023-05-06T19:26:36.418Z,71.03
2023-05-06T19:29:33.827Z,71.28
2023-05-06T19:32:32.290Z,71.65
2023-05-06T19:35:29.688Z,71.87
2023-05-06T19:38:27.479Z,72.19
2023-05-06T19:41:24.921Z,72.58
2023-05-06T19:44:22.615Z,72.77
2023-05-06T19:47:20.330Z,73.03
2023-05-06T19:50:17.772Z,73.18
2023-05-06T19:53:15.482Z,73.23
2023-05-06T19:56:12.895Z,73.42
2023-05-06T19:59:10.504Z,73.78
2023-05-06T20:02:10.520Z,73.83
2023-05-06T20:05:08.423Z,73.85
2023-05-06T20:08:10.958Z,73.76
2023-05-06T20:11:08.714Z,73.88
2023-05-06T20:14:06.350Z,74.00
2023-05-06T20:17:04.068Z,74.17
2023-05-06T20:20:09.674Z,74.23
2023-05-06T20:23:07.674Z,74.33
2023-05-06T20:26:05.375Z,74.36
2023-05-06T20:29:02.756Z,74.53
2023-05-06T20:32:00.553Z,74.67
2023-05-06T20:34:58.297Z,74.59
2023-05-06T20:37:56.118Z,74.63
2023-05-06T20:40:53.771Z,74.62
2023-05-06T20:43:52.856Z,74.76
2023-05-06T20:46:50.546Z,74.96
2023-05-06T20:49:47.983Z,75.08
2023-05-06T20:52:46.162Z,75.08
2023-05-06T20:55:43.899Z,75.17
2023-05-06T20:58:41.352Z,75.29
2023-05-06T21:01:39.296Z,75.46
2023-05-06T21:04:36.760Z,75.49
2023-05-06T21:07:34.817Z,75.55
2023-05-06T21:10:32.251Z,75.60
2023-05-06T21:13:29.876Z,75.62
2023-05-06T21:16:27.333Z,75.69
2023-05-06T21:19:24.949Z,75.74
2023-05-06T21:22:22.819Z,75.92
2023-05-06T21:25:20.197Z,76.18
2023-05-06T21:28:17.796Z,76.31
2023-05-06T21:31:15.193Z,76.46
2023-05-06T21:34:12.775Z,76.50
2023-05-06T21:37:10.142Z,76.55
2023-05-06T21:40:07.697Z,76.63
2023-05-06T21:43:05.808Z,76.74
2023-05-06T21:46:04.064Z,76.87
2023-05-06T21:49:01.553Z,76.91
2023-05-06T21:51:59.280Z,77.12
2023-05-06T21:54:57.446Z,77.15
2023-05-06T21:57:54.822Z,77.13
2023-05-06T22:00:52.698Z,77.16
2023-05-06T22:03:50.261Z,77.14
2023-05-06T22:06:48.103Z,77.17
2023-05-06T22:09:45.537Z,77.22
2023-05-06T22:12:43.319Z,77.25
2023-05-06T22:15:41.301Z,77.22
2023-05-06T22:18:41.768Z,77.20
2023-05-06T22:21:41.991Z,77.27
2023-05-06T22:24:39.682Z,77.32
2023-05-06T22:27:37.931Z,77.34
2023-05-06T22:30:35.316Z,77.45
2023-05-06T22:33:32.910Z,77.50
2023-05-06T22:36:31.851Z,77.50
2023-05-06T22:39:29.966Z,77.38
2023-05-06T22:42:27.518Z,77.49
2023-05-06T22:45:25.161Z,77.64
2023-05-06T22:48:22.858Z,77.68
2023-05-06T22:51:21.225Z,77.70
2023-05-06T22:54:18.828Z,77.62
2023-05-06T22:57:16.477Z,77.70
2023-05-06T23:00:14.136Z,77.71
2023-05-06T23:03:11.995Z,77.80
2023-05-06T23:06:09.370Z,77.84
2023-05-06T23:09:07.026Z,77.89
2023-05-06T23:12:04.416Z,77.92
2023-05-06T23:15:02.024Z,78.07
2023-05-06T23:17:59.474Z,78.16
2023-05-06T23:20:57.113Z,78.19
2023-05-06T23:23:54.754Z,78.21
2023-05-06T23:26:52.265Z,78.20
2023-05-06T23:29:49.993Z,78.29
2023-05-06T23:32:47.409Z,78.29
2023-05-06T23:35:45.080Z,78.30
2023-05-06T23:38:42.462Z,78.37
2023-05-06T23:41:40.057Z,78.44
2023-05-06T23:44:37.469Z,78.50
2023-05-06T23:47:35.177Z,78.56
2023-05-06T23:50:32.996Z,78.62
2023-05-06T23:53:30.477Z,78.67
2023-05-06T23:56:28.143Z,78.70
2023-05-06T23:59:25.593Z,78.72
